createdAt,value
2023-01-03T00:02:13.643Z,96.28
2023-01-03T00:04:44.456Z,96.62
2023-01-03T00:07:14.216Z,96.33
2023-01-03T00:09:41.029Z,96.40
2023-01-03T00:12:30.843Z,96.56
2023-01-03T00:14:59.350Z,96.39
2023-01-03T00:17:26.399Z,96.37
2023-01-03T00:19:52.829Z,96.26
2023-01-03T00:22:19.758Z,96.17
2023-01-03T00:24:48.333Z,96.24
2023-01-03T00:27:16.814Z,96.05
2023-01-03T00:29:43.903Z,96.07
2023-01-03T00:32:11.589Z,95.49
2023-01-03T00:34:38.277Z,95.78
2023-01-03T00:37:06.049Z,95.50
2023-01-03T00:39:36.561Z,95.51
2023-01-03T00:42:08.812Z,95.13
2023-01-03T00:44:36.604Z,95.59
2023-01-03T00:47:03.823Z,95.47
2023-01-03T00:49:33.144Z,95.28
2023-01-03T00:52:00.134Z,95.62
2023-01-03T00:54:27.030Z,95.57
2023-01-03T00:56:53.568Z,95.48
2023-01-03T00:59:22.357Z,95.75
2023-01-03T01:04:46.455Z,95.66
2023-01-03T01:07:12.932Z,95.63
2023-01-03T01:09:40.082Z,95.56
2023-01-03T01:12:08.195Z,95.52
2023-01-03T01:14:35.703Z,95.42
2023-01-03T01:17:05.756Z,95.44
2023-01-03T01:19:36.102Z,95.56
2023-01-03T01:22:03.580Z,95.22
2023-01-03T01:24:31.472Z,95.54
2023-01-03T01:26:59.072Z,95.54
2023-01-03T01:29:29.275Z,95.82
2023-01-03T01:31:56.308Z,95.68
2023-01-03T01:34:22.903Z,95.77
2023-01-03T01:36:49.899Z,95.79
2023-01-03T01:39:22.178Z,96.07
2023-01-03T01:42:12.636Z,96.04
2023-01-03T01:45:12.205Z,95.84
2023-01-03T01:47:42.687Z,95.94
2023-01-03T01:50:36.826Z,95.54
2023-01-03T01:53:09.043Z,95.46
2023-01-03T01:55:43.396Z,95.43
2023-01-03T01:58:10.855Z,95.30
2023-01-03T02:00:37.641Z,95.20
2023-01-03T02:03:04.714Z,95.01
2023-01-03T02:05:33.837Z,95.33
2023-01-03T02:08:01.419Z,95.37
2023-01-03T02:10:54.893Z,95.06
2023-01-03T02:13:58.006Z,94.93
2023-01-03T02:16:50.646Z,94.87
2023-01-03T02:19:38.551Z,95.24
2023-01-03T02:22:36.169Z,94.94
2023-01-03T02:25:30.878Z,95.09
2023-01-03T02:28:03.420Z,95.14
2023-01-03T02:30:37.573Z,95.16
2023-01-03T02:33:25.765Z,95.25
2023-01-03T02:36:43.778Z,95.18
2023-01-03T02:39:23.846Z,95.24
2023-01-03T02:42:18.311Z,95.29
2023-01-03T02:45:16.003Z,95.27
2023-01-03T02:48:04.050Z,95.41
2023-01-03T02:50:39.762Z,95.71
2023-01-03T02:53:10.817Z,95.48
2023-01-03T02:55:43.084Z,95.33
2023-01-03T02:58:18.510Z,95.30
2023-01-03T03:00:50.572Z,95.81
2023-01-03T03:03:22.482Z,95.44
2023-01-03T03:06:11.174Z,95.56
2023-01-03T03:08:37.938Z,95.83
2023-01-03T03:11:23.486Z,95.86
2023-01-03T03:14:01.540Z,95.85
2023-01-03T03:16:50.737Z,95.99
2023-01-03T03:19:56.582Z,96.17
2023-01-03T03:22:49.761Z,96.61
2023-01-03T03:25:26.706Z,96.58
2023-01-03T03:28:17.973Z,96.87
2023-01-03T03:30:48.255Z,96.93
2023-01-03T03:33:17.267Z,96.81
2023-01-03T03:35:55.968Z,96.90
2023-01-03T03:38:28.953Z,96.75
2023-01-03T03:41:57.086Z,96.75
2023-01-03T03:45:01.984Z,96.52
2023-01-03T03:47:54.762Z,96.38
2023-01-03T03:50:45.063Z,96.21
2023-01-03T03:53:14.821Z,95.97
2023-01-03T03:56:08.540Z,96.05
2023-01-03T03:58:41.427Z,95.92
2023-01-03T04:01:10.652Z,95.64
2023-01-03T04:03:40.081Z,95.31
2023-01-03T04:06:13.954Z,95.65
2023-01-03T04:08:41.407Z,95.63
2023-01-03T04:11:08.228Z,95.60
2023-01-03T04:13:38.697Z,95.50
2023-01-03T04:16:06.616Z,95.38
2023-01-03T04:18:33.461Z,95.27
2023-01-03T04:21:01.090Z,95.31
2023-01-03T04:23:27.998Z,95.09
2023-01-03T04:25:57.572Z,94.96
2023-01-03T04:28:24.600Z,94.93
2023-01-03T04:30:51.252Z,94.74
2023-01-03T04:33:17.852Z,94.66
2023-01-03T04:35:46.637Z,94.64
2023-01-03T04:38:13.476Z,94.22
2023-01-03T04:40:42.939Z,94.24
2023-01-03T04:43:32.284Z,93.90
2023-01-03T04:45:59.094Z,93.84
2023-01-03T04:48:26.428Z,94.02
2023-01-03T04:50:58.350Z,93.74
2023-01-03T04:53:27.525Z,94.10
2023-01-03T04:55:56.756Z,94.10
2023-01-03T04:58:24.246Z,94.08
2023-01-03T05:00:51.855Z,94.42
2023-01-03T05:03:23.932Z,94.00
2023-01-03T05:05:53.383Z,94.08
2023-01-03T05:08:20.182Z,94.04
2023-01-03T05:10:46.789Z,94.07
2023-01-03T05:13:16.637Z,94.12
2023-01-03T05:15:43.605Z,94.03
2023-01-03T05:18:10.320Z,94.46
2023-01-03T05:20:56.631Z,94.76
2023-01-03T05:23:42.553Z,94.93
2023-01-03T05:26:16.307Z,94.32
2023-01-03T05:28:46.404Z,94.25
2023-01-03T05:31:13.565Z,94.65
2023-01-03T05:33:40.816Z,94.42
2023-01-03T05:36:08.826Z,94.75
2023-01-03T05:38:36.021Z,94.57
2023-01-03T05:41:03.321Z,94.77
2023-01-03T05:43:30.024Z,94.91
2023-01-03T05:45:56.646Z,94.80
2023-01-03T05:48:23.298Z,94.75
2023-01-03T05:50:50.985Z,94.89
2023-01-03T05:53:18.182Z,94.92
2023-01-03T05:55:45.845Z,94.90
2023-01-03T05:58:13.330Z,94.94
2023-01-03T06:00:43.453Z,95.03
2023-01-03T06:03:10.360Z,95.01
2023-01-03T06:05:36.916Z,94.99
2023-01-03T06:08:03.594Z,95.21
2023-01-03T06:10:30.659Z,95.29
2023-01-03T06:12:57.565Z,95.02
2023-01-03T06:15:24.107Z,95.23
2023-01-03T06:18:02.751Z,95.15
2023-01-03T06:20:33.322Z,95.35
2023-01-03T06:22:59.937Z,95.36
2023-01-03T06:25:26.576Z,95.37
2023-01-03T06:27:53.378Z,95.33
2023-01-03T06:30:20.944Z,95.14
2023-01-03T06:32:48.102Z,95.20
2023-01-03T06:35:17.051Z,94.84
2023-01-03T06:37:43.647Z,95.35
2023-01-03T06:40:11.156Z,94.95
2023-01-03T06:42:43.311Z,94.85
2023-01-03T06:45:30.883Z,94.94
2023-01-03T06:48:16.941Z,95.00
2023-01-03T06:51:03.208Z,94.96
2023-01-03T06:53:34.786Z,94.92
2023-01-03T06:56:02.194Z,95.37
2023-01-03T06:58:29.557Z,95.21
2023-01-03T07:00:58.574Z,95.13
2023-01-03T07:03:28.157Z,95.23
2023-01-03T07:05:54.950Z,94.96
2023-01-03T07:08:21.938Z,95.04
2023-01-03T07:10:48.514Z,94.77
2023-01-03T07:13:33.717Z,94.73
2023-01-03T07:16:03.440Z,94.87
2023-01-03T07:18:31.474Z,94.91
2023-01-03T07:20:58.136Z,94.76
2023-01-03T07:23:24.785Z,95.07
2023-01-03T07:25:55.513Z,94.71
2023-01-03T07:28:23.464Z,94.80
2023-01-03T07:30:50.008Z,94.81
2023-01-03T07:33:18.074Z,94.94
2023-01-03T07:35:48.861Z,95.22
2023-01-03T07:38:18.804Z,94.92
2023-01-03T07:40:46.433Z,95.09
2023-01-03T07:43:34.924Z,95.26
2023-01-03T07:46:28.047Z,95.07
2023-01-03T07:49:06.578Z,94.75
2023-01-03T07:51:40.807Z,95.40
2023-01-03T07:54:09.914Z,95.26
2023-01-03T07:56:37.126Z,95.60
2023-01-03T07:59:06.038Z,95.24
2023-01-03T08:01:36.082Z,95.67
2023-01-03T08:04:02.914Z,95.57
2023-01-03T08:06:31.632Z,95.49
2023-01-03T08:09:16.839Z,95.87
2023-01-03T08:12:02.252Z,95.98
2023-01-03T08:14:28.876Z,95.74
2023-01-03T08:16:56.321Z,96.24
2023-01-03T08:19:24.870Z,95.67
2023-01-03T08:21:51.846Z,96.13
2023-01-03T08:24:18.593Z,95.67
2023-01-03T08:26:45.820Z,95.76
2023-01-03T08:29:12.569Z,95.79
2023-01-03T08:31:50.733Z,96.16
2023-01-03T08:34:27.008Z,96.67
2023-01-03T08:37:02.095Z,96.40
2023-01-03T08:39:36.356Z,96.42
2023-01-03T08:42:10.276Z,96.31
2023-01-03T08:44:38.493Z,96.23
2023-01-03T08:47:08.649Z,96.13
2023-01-03T08:49:36.268Z,96.19
2023-01-03T08:52:02.904Z,96.36
2023-01-03T08:54:29.770Z,96.14
2023-01-03T08:56:56.305Z,95.74
2023-01-03T08:59:22.897Z,95.90
2023-01-03T09:01:49.745Z,96.07
2023-01-03T09:04:16.493Z,96.05
2023-01-03T09:06:43.056Z,96.04
2023-01-03T09:09:09.955Z,95.67
2023-01-03T09:11:36.471Z,95.88
2023-01-03T09:14:03.046Z,95.83
2023-01-03T09:16:29.857Z,95.87
2023-01-03T09:18:56.646Z,95.43
2023-01-03T09:21:23.767Z,95.84
2023-01-03T09:23:51.442Z,95.99
2023-01-03T09:26:18.020Z,95.88
2023-01-03T09:28:46.719Z,95.52
2023-01-03T09:31:15.461Z,95.73
2023-01-03T09:33:42.445Z,95.73
2023-01-03T09:36:11.073Z,95.66
2023-01-03T09:38:39.997Z,95.82
2023-01-03T09:41:12.449Z,95.93
2023-01-03T09:43:42.475Z,95.90
2023-01-03T09:46:21.678Z,95.93
2023-01-03T09:48:49.184Z,95.95
2023-01-03T09:51:50.542Z,95.76
2023-01-03T09:54:45.977Z,95.93
2023-01-03T09:57:37.718Z,95.77
2023-01-03T10:00:31.450Z,95.81
2023-01-03T10:03:29.981Z,96.06
2023-01-03T10:06:24.819Z,95.86
2023-01-03T10:09:42.481Z,95.75
2023-01-03T10:12:15.068Z,96.13
2023-01-03T10:14:46.519Z,95.97
2023-01-03T10:17:57.348Z,95.58
2023-01-03T10:20:38.639Z,95.29
2023-01-03T10:23:08.102Z,95.05
2023-01-03T10:25:41.899Z,94.90
2023-01-03T10:28:21.451Z,94.65
2023-01-03T10:31:08.401Z,94.47
2023-01-03T10:33:42.784Z,94.14
2023-01-03T10:36:09.628Z,94.36
2023-01-03T10:38:46.423Z,94.00
2023-01-03T10:41:30.931Z,94.01
2023-01-03T10:44:01.729Z,93.62
2023-01-03T10:46:30.043Z,93.85
2023-01-03T10:49:28.822Z,93.55
2023-01-03T10:52:16.756Z,93.43
2023-01-03T10:54:43.607Z,93.23
2023-01-03T10:57:53.716Z,93.31
2023-01-03T11:00:23.787Z,93.30
2023-01-03T11:02:51.433Z,93.39
2023-01-03T11:05:23.363Z,93.39
2023-01-03T11:07:58.917Z,93.35
2023-01-03T11:10:51.349Z,93.11
2023-01-03T11:13:33.644Z,92.90
2023-01-03T11:16:03.541Z,92.85
2023-01-03T11:18:31.393Z,92.27
2023-01-03T11:21:23.546Z,91.72
2023-01-03T11:24:27.911Z,91.51
2023-01-03T11:26:56.992Z,91.01
2023-01-03T11:30:03.706Z,90.80
2023-01-03T11:32:58.177Z,90.19
2023-01-03T11:35:30.278Z,89.77
2023-01-03T11:38:46.111Z,89.67
2023-01-03T11:41:35.605Z,88.66
2023-01-03T11:44:15.310Z,88.00
2023-01-03T11:47:11.194Z,88.02
2023-01-03T11:49:57.113Z,87.69
2023-01-03T11:52:51.174Z,87.80
2023-01-03T11:55:40.371Z,87.89
2023-01-03T11:58:33.604Z,87.74
2023-01-03T12:01:13.939Z,88.02
2023-01-03T12:04:08.037Z,87.42
2023-01-03T12:07:37.490Z,87.43
2023-01-03T12:10:12.519Z,86.74
2023-01-03T12:12:48.290Z,86.13
2023-01-03T12:15:21.706Z,86.59
2023-01-03T12:17:59.814Z,86.64
2023-01-03T12:20:37.083Z,86.83
2023-01-03T12:23:28.497Z,86.78
2023-01-03T12:26:01.004Z,87.20
2023-01-03T12:28:35.741Z,87.57
2023-01-03T12:31:17.359Z,87.33
2023-01-03T12:33:46.928Z,87.78
2023-01-03T12:36:22.632Z,87.85
2023-01-03T12:39:12.760Z,87.62
2023-01-03T12:41:51.285Z,87.16
2023-01-03T12:44:32.338Z,86.81
2023-01-03T12:47:00.564Z,87.30
2023-01-03T12:49:54.991Z,87.20
2023-01-03T12:52:24.465Z,86.58
2023-01-03T12:55:00.258Z,86.74
2023-01-03T12:57:48.728Z,86.81
2023-01-03T13:00:39.797Z,87.04
2023-01-03T13:03:20.443Z,86.86
2023-01-03T13:05:51.678Z,86.92
2023-01-03T13:08:30.848Z,87.18
2023-01-03T13:11:03.711Z,87.27
2023-01-03T13:13:31.941Z,87.38
2023-01-03T13:15:58.485Z,86.92
2023-01-03T13:18:24.993Z,86.97
2023-01-03T13:20:55.921Z,86.71
2023-01-03T13:23:41.311Z,86.52
2023-01-03T13:26:21.002Z,86.51
2023-01-03T13:28:48.093Z,86.82
2023-01-03T13:31:14.883Z,86.64
2023-01-03T13:34:15.982Z,86.36
2023-01-03T13:37:07.464Z,85.57
2023-01-03T13:39:40.279Z,86.34
2023-01-03T13:42:20.913Z,85.88
2023-01-03T13:44:47.716Z,86.51
2023-01-03T13:47:33.122Z,86.55
2023-01-03T13:50:00.055Z,86.37
2023-01-03T13:52:55.460Z,86.63
2023-01-03T13:55:59.286Z,86.55
2023-01-03T13:58:47.225Z,86.16
2023-01-03T14:01:52.567Z,86.53
2023-01-03T14:04:38.194Z,86.79
2023-01-03T14:07:35.328Z,85.89
2023-01-03T14:10:28.263Z,86.68
2023-01-03T14:13:37.700Z,86.50
2023-01-03T14:16:22.512Z,87.15
2023-01-03T14:18:57.647Z,87.50
2023-01-03T14:21:31.043Z,87.60
2023-01-03T14:24:00.851Z,87.68
2023-01-03T14:26:28.279Z,87.98
2023-01-03T14:28:55.992Z,88.31
2023-01-03T14:31:27.610Z,88.61
2023-01-03T14:34:03.298Z,88.37
2023-01-03T14:36:29.875Z,88.52
2023-01-03T14:38:58.680Z,88.77
2023-01-03T14:41:32.765Z,88.48
2023-01-03T14:44:00.791Z,88.80
2023-01-03T14:46:30.304Z,89.07
2023-01-03T14:49:03.179Z,88.72
2023-01-03T14:51:33.354Z,89.13
2023-01-03T14:54:00.801Z,89.01
2023-01-03T14:56:28.639Z,89.15
2023-01-03T14:58:55.983Z,89.24
2023-01-03T15:01:23.618Z,89.35
2023-01-03T15:03:52.059Z,89.17
2023-01-03T15:06:28.052Z,89.18
2023-01-03T15:08:57.727Z,89.18
2023-01-03T15:11:56.694Z,89.58
2023-01-03T15:14:39.030Z,89.45
2023-01-03T15:17:09.710Z,89.67
2023-01-03T15:19:40.769Z,89.37
2023-01-03T15:22:12.326Z,89.27
2023-01-03T15:24:43.468Z,89.30
2023-01-03T15:27:38.239Z,89.51
2023-01-03T15:30:14.838Z,89.58
2023-01-03T15:33:03.170Z,89.58
2023-01-03T15:35:37.487Z,89.62
2023-01-03T15:38:12.733Z,90.05
2023-01-03T15:40:40.814Z,90.05
2023-01-03T15:43:21.958Z,89.96
2023-01-03T15:46:16.581Z,89.96
2023-01-03T15:48:51.092Z,90.10
2023-01-03T15:51:17.600Z,90.44
2023-01-03T15:53:45.008Z,90.48
2023-01-03T15:56:22.384Z,90.97
2023-01-03T15:58:51.646Z,91.03
2023-01-03T16:01:20.123Z,91.74
2023-01-03T16:03:48.599Z,91.65
2023-01-03T16:06:16.333Z,91.91
2023-01-03T16:08:43.601Z,92.00
2023-01-03T16:11:18.314Z,91.99
2023-01-03T16:13:51.731Z,92.03
2023-01-03T16:16:25.227Z,92.39
2023-01-03T16:18:52.613Z,92.23
2023-01-03T16:21:20.007Z,92.28
2023-01-03T16:23:47.038Z,92.58
2023-01-03T16:26:15.901Z,93.51
2023-01-03T16:28:43.205Z,93.64
2023-01-03T16:31:16.199Z,93.47
2023-01-03T16:33:43.603Z,93.57
2023-01-03T16:36:27.927Z,94.46
2023-01-03T16:38:55.092Z,94.86
2023-01-03T16:41:21.846Z,95.21
2023-01-03T16:43:48.432Z,95.20
2023-01-03T16:46:21.936Z,94.95
2023-01-03T16:48:53.007Z,95.35
2023-01-03T16:51:26.225Z,95.44
2023-01-03T16:53:55.913Z,95.18
2023-01-03T16:56:23.552Z,95.13
2023-01-03T16:58:51.240Z,95.42
2023-01-03T17:01:19.626Z,95.98
2023-01-03T17:03:47.124Z,97.31
2023-01-03T17:06:23.751Z,97.67
2023-01-03T17:08:52.032Z,98.03
2023-01-03T17:11:18.821Z,98.20
2023-01-03T17:13:48.013Z,98.62
2023-01-03T17:16:17.834Z,97.97
2023-01-03T17:18:45.307Z,98.30
2023-01-03T17:21:32.021Z,97.88
2023-01-03T17:24:03.081Z,98.40
2023-01-03T17:26:32.246Z,98.93
2023-01-03T17:29:01.826Z,99.13
2023-01-03T17:31:28.917Z,99.37
2023-01-03T17:33:56.241Z,98.89
2023-01-03T17:36:27.566Z,99.39
2023-01-03T17:38:57.941Z,99.04
2023-01-03T17:41:27.079Z,99.59
2023-01-03T17:43:54.788Z,100.00
2023-01-03T17:46:45.698Z,100.00
2023-01-03T17:49:26.394Z,100.00
2023-01-03T17:52:01.801Z,100.00
2023-01-03T17:54:36.117Z,100.00
2023-01-03T17:57:05.124Z,100.00
2023-01-03T17:59:32.117Z,100.00
2023-01-03T18:01:59.562Z,100.00
2023-01-03T18:04:44.071Z,100.00
2023-01-03T18:07:21.961Z,100.00
2023-01-03T18:09:51.053Z,100.00
2023-01-03T18:12:19.719Z,100.00
2023-01-03T18:14:48.996Z,100.00
2023-01-03T18:17:29.917Z,100.00
2023-01-03T18:19:57.899Z,100.00
2023-01-03T18:22:25.111Z,100.00
2023-01-03T18:24:53.144Z,100.00
2023-01-03T18:27:22.883Z,100.00
2023-01-03T18:29:49.931Z,100.00
2023-01-03T18:32:32.494Z,100.00
2023-01-03T18:34:59.833Z,100.00
2023-01-03T18:37:31.597Z,100.00
2023-01-03T18:39:58.089Z,100.00
2023-01-03T18:42:43.300Z,100.00
2023-01-03T18:45:14.721Z,100.00
2023-01-03T18:47:41.514Z,100.00
2023-01-03T18:50:08.624Z,100.00
2023-01-03T18:52:36.588Z,100.00
2023-01-03T18:55:05.272Z,100.00
2023-01-03T18:57:32.169Z,100.00
2023-01-03T18:59:58.637Z,100.00
2023-01-03T19:02:25.917Z,100.00
2023-01-03T19:04:53.508Z,100.00
2023-01-03T19:07:31.469Z,100.00
2023-01-03T19:09:58.754Z,100.00
2023-01-03T19:12:25.908Z,100.00
2023-01-03T19:14:52.686Z,100.00
2023-01-03T19:17:20.482Z,100.00
2023-01-03T19:19:47.158Z,100.00
2023-01-03T19:22:28.907Z,100.00
2023-01-03T19:24:59.970Z,100.00
2023-01-03T19:27:45.241Z,100.00
2023-01-03T19:30:23.607Z,100.00
2023-01-03T19:32:54.698Z,100.00
2023-01-03T19:35:23.448Z,100.00
2023-01-03T19:37:51.066Z,100.00
2023-01-03T19:40:21.016Z,100.00
2023-01-03T19:42:54.231Z,100.00
2023-01-03T19:45:24.975Z,100.00
2023-01-03T19:47:51.731Z,100.00
2023-01-03T19:50:19.991Z,100.00
2023-01-03T19:52:47.389Z,100.00
2023-01-03T19:55:14.675Z,100.00
2023-01-03T19:57:43.618Z,100.00
2023-01-03T20:00:16.131Z,100.00
2023-01-03T20:02:42.990Z,100.00
2023-01-03T20:05:21.604Z,100.00
2023-01-03T20:07:49.588Z,100.00
2023-01-03T20:10:25.262Z,100.00
2023-01-03T20:12:57.478Z,100.00
2023-01-03T20:15:27.837Z,100.00
2023-01-03T20:17:55.829Z,100.00
2023-01-03T20:20:25.482Z,100.00
2023-01-03T20:23:06.229Z,100.00
2023-01-03T20:25:35.314Z,100.00
2023-01-03T20:28:02.548Z,100.00
2023-01-03T20:30:32.010Z,100.00
2023-01-03T20:32:58.770Z,100.00
2023-01-03T20:38:16.712Z,100.00
2023-01-03T20:40:44.010Z,100.00
2023-01-03T20:43:14.352Z,100.00
2023-01-03T20:45:42.400Z,100.00
2023-01-03T20:48:19.480Z,100.00
2023-01-03T20:50:50.355Z,100.00
2023-01-03T20:53:23.127Z,100.00
2023-01-03T20:55:50.800Z,100.00
2023-01-03T20:58:21.275Z,100.00
2023-01-03T21:00:48.337Z,100.00
2023-01-03T21:03:15.051Z,100.00
2023-01-03T21:05:41.825Z,100.00
2023-01-03T21:08:33.935Z,100.00
2023-01-03T21:11:01.169Z,100.00
2023-01-03T21:13:28.072Z,100.00
2023-01-03T21:15:55.925Z,100.00
2023-01-03T21:18:22.940Z,100.00
2023-01-03T21:20:49.800Z,100.00
2023-01-03T21:23:22.820Z,100.00
2023-01-03T21:25:49.989Z,100.00
2023-01-03T21:28:16.516Z,100.00
2023-01-03T21:30:43.155Z,100.00
2023-01-03T21:33:18.911Z,100.00
2023-01-03T21:35:46.212Z,100.00
2023-01-03T21:38:12.889Z,100.00
2023-01-03T21:40:39.490Z,100.00
2023-01-03T21:43:06.499Z,100.00
2023-01-03T21:45:36.473Z,100.00
2023-01-03T21:48:05.927Z,100.00
2023-01-03T21:50:33.353Z,100.00
2023-01-03T21:53:00.396Z,100.00
2023-01-03T21:55:26.937Z,100.00
2023-01-03T21:57:53.478Z,100.00
2023-01-03T22:00:20.240Z,100.00
2023-01-03T22:03:06.014Z,100.00
2023-01-03T22:05:32.875Z,100.00
2023-01-03T22:08:01.497Z,100.00
2023-01-03T22:10:30.742Z,100.00
2023-01-03T22:12:59.424Z,100.00
2023-01-03T22:15:26.272Z,100.00
2023-01-03T22:17:53.665Z,100.00
2023-01-03T22:20:23.018Z,100.00
2023-01-03T22:22:50.108Z,100.00
2023-01-03T22:25:18.796Z,100.00
2023-01-03T22:27:46.263Z,100.00
2023-01-03T22:30:18.065Z,100.00
2023-01-03T22:32:45.222Z,100.00
2023-01-03T22:35:12.352Z,100.00
2023-01-03T22:37:39.644Z,100.00
2023-01-03T22:40:07.774Z,100.00
2023-01-03T22:42:34.581Z,100.00
2023-01-03T22:45:01.193Z,100.00
2023-01-03T22:47:28.351Z,100.00
2023-01-03T22:49:54.946Z,100.00
2023-01-03T22:52:21.427Z,100.00
2023-01-03T22:54:47.885Z,100.00
2023-01-03T22:57:14.737Z,100.00
2023-01-03T22:59:41.466Z,100.00
2023-01-03T23:02:08.288Z,100.00
2023-01-03T23:04:35.426Z,100.00
2023-01-03T23:07:01.911Z,100.00
2023-01-03T23:09:28.449Z,100.00
2023-01-03T23:12:13.501Z,100.00
2023-01-03T23:14:40.170Z,100.00
2023-01-03T23:17:25.377Z,100.00
2023-01-03T23:19:51.857Z,100.00
2023-01-03T23:22:18.335Z,100.00
2023-01-03T23:24:44.855Z,100.00
2023-01-03T23:27:11.345Z,100.00
2023-01-03T23:29:37.791Z,100.00
2023-01-03T23:32:04.572Z,100.00
2023-01-03T23:34:31.431Z,100.00
2023-01-03T23:36:57.893Z,100.00
2023-01-03T23:39:24.435Z,100.00
2023-01-03T23:41:51.232Z,100.00
2023-01-03T23:44:17.672Z,100.00
2023-01-03T23:46:44.199Z,100.00
2023-01-03T23:49:12.401Z,100.00
2023-01-03T23:51:38.968Z,100.00
2023-01-03T23:54:05.843Z,100.00
2023-01-03T23:56:32.383Z,100.00
2023-01-03T23:58:59.186Z,100.00
